createdAt,value
2022-08-28T00:04:14.706Z,71.62
2022-08-28T00:06:55.634Z,71.98
2022-08-28T00:09:47.572Z,71.73
2022-08-28T00:12:40.653Z,71.79
2022-08-28T00:15:52.706Z,72.06
2022-08-28T00:18:24.755Z,72.21
2022-08-28T00:20:54.004Z,72.59
2022-08-28T00:23:42.957Z,72.59
2022-08-28T00:29:55.350Z,73.96
2022-08-28T00:32:53.060Z,74.16
2022-08-28T00:35:24.090Z,73.93
2022-08-28T00:37:52.928Z,73.99
2022-08-28T00:40:28.827Z,73.58
2022-08-28T00:43:03.618Z,73.66
2022-08-28T00:45:37.272Z,73.88
2022-08-28T00:48:18.325Z,74.18
2022-08-28T00:51:10.570Z,74.32
2022-08-28T00:53:43.314Z,74.12
2022-08-28T00:56:17.877Z,74.62
2022-08-28T00:58:50.438Z,75.32
2022-08-28T01:01:19.134Z,75.40
2022-08-28T01:03:48.903Z,76.14
2022-08-28T01:06:21.084Z,75.89
2022-08-28T01:08:54.844Z,76.19
2022-08-28T01:11:26.548Z,76.34
2022-08-28T01:14:01.750Z,76.17
2022-08-28T01:16:48.274Z,75.80
2022-08-28T01:23:15.855Z,75.49
2022-08-28T01:23:21.492Z,75.87
2022-08-28T01:25:54.352Z,75.49
2022-08-28T01:28:39.925Z,75.59
2022-08-28T01:33:06.325Z,75.90
2022-08-28T01:35:07.714Z,76.00
2022-08-28T01:38:06.287Z,76.07
2022-08-28T01:40:46.728Z,76.26
2022-08-28T01:43:36.786Z,76.39
2022-08-28T01:46:11.990Z,76.36
2022-08-28T01:48:45.651Z,76.77
2022-08-28T01:51:16.360Z,76.88
2022-08-28T01:53:46.672Z,76.76
2022-08-28T01:56:17.776Z,77.00
2022-08-28T01:58:48.386Z,76.97
2022-08-28T02:01:22.283Z,77.14
2022-08-28T02:03:53.224Z,76.99
2022-08-28T02:06:25.864Z,76.90
2022-08-28T02:08:55.707Z,76.72
2022-08-28T02:11:32.244Z,77.02
2022-08-28T02:14:01.860Z,76.91
2022-08-28T02:16:30.920Z,76.82
2022-08-28T02:19:01.735Z,76.88
2022-08-28T02:21:32.288Z,76.66
2022-08-28T02:24:01.253Z,77.14
2022-08-28T02:26:32.379Z,76.73
2022-08-28T02:29:01.295Z,76.95
2022-08-28T02:31:33.658Z,76.94
2022-08-28T02:34:02.246Z,77.01
2022-08-28T02:36:30.872Z,76.91
2022-08-28T02:38:59.874Z,76.81
2022-08-28T02:41:28.712Z,76.43
2022-08-28T02:44:00.634Z,76.40
2022-08-28T02:46:30.562Z,76.14
2022-08-28T02:48:59.201Z,76.22
2022-08-28T02:51:33.576Z,76.57
2022-08-28T02:54:02.335Z,77.11
2022-08-28T02:56:31.431Z,77.17
2022-08-28T02:58:59.766Z,77.56
2022-08-28T03:01:29.575Z,77.59
2022-08-28T03:03:58.395Z,77.64
2022-08-28T03:06:26.800Z,77.69
2022-08-28T03:08:55.764Z,77.67
2022-08-28T03:11:25.293Z,77.48
2022-08-28T03:13:53.978Z,77.24
2022-08-28T03:16:22.292Z,77.19
2022-08-28T03:18:51.257Z,77.18
2022-08-28T03:21:21.865Z,77.17
2022-08-28T03:23:50.162Z,77.18
2022-08-28T03:26:20.687Z,77.47
2022-08-28T03:28:52.283Z,77.60
2022-08-28T03:31:26.943Z,77.57
2022-08-28T03:33:58.075Z,77.68
2022-08-28T03:36:28.920Z,77.68
2022-08-28T03:38:59.396Z,77.97
2022-08-28T03:41:30.608Z,77.98
2022-08-28T03:44:01.150Z,78.00
2022-08-28T03:46:35.130Z,78.21
2022-08-28T03:49:06.910Z,78.64
2022-08-28T03:51:35.549Z,78.51
2022-08-28T03:54:06.342Z,78.42
2022-08-28T03:56:34.659Z,78.36
2022-08-28T03:59:05.414Z,78.22
2022-08-28T04:01:35.200Z,77.76
2022-08-28T04:04:04.419Z,77.74
2022-08-28T04:06:32.867Z,77.60
2022-08-28T04:09:04.783Z,77.38
2022-08-28T04:11:38.536Z,77.09
2022-08-28T04:14:09.716Z,76.70
2022-08-28T04:16:38.687Z,76.28
2022-08-28T04:19:07.597Z,76.13
2022-08-28T04:21:35.815Z,75.69
2022-08-28T04:24:09.038Z,75.90
2022-08-28T04:26:37.966Z,75.90
2022-08-28T04:29:07.688Z,75.84
2022-08-28T04:31:37.126Z,76.02
2022-08-28T04:34:08.862Z,76.18
2022-08-28T04:36:38.059Z,76.35
2022-08-28T04:39:08.841Z,76.53
2022-08-28T04:41:38.777Z,76.36
2022-08-28T04:44:07.867Z,76.61
2022-08-28T04:46:39.585Z,76.45
2022-08-28T04:49:08.142Z,76.62
2022-08-28T04:51:42.118Z,76.44
2022-08-28T04:54:11.070Z,76.51
2022-08-28T04:56:40.884Z,76.21
2022-08-28T04:59:11.826Z,76.20
2022-08-28T05:01:41.749Z,75.97
2022-08-28T05:04:11.731Z,76.22
2022-08-28T05:06:46.495Z,76.45
2022-08-28T05:09:19.437Z,76.30
2022-08-28T05:11:49.509Z,76.36
2022-08-28T05:14:17.790Z,76.66
2022-08-28T05:16:58.256Z,76.92
2022-08-28T05:19:30.014Z,76.64
2022-08-28T05:21:59.430Z,76.67
2022-08-28T05:24:27.686Z,76.57
2022-08-28T05:26:58.804Z,76.50
2022-08-28T05:29:27.696Z,76.66
2022-08-28T05:31:56.243Z,76.57
2022-08-28T05:34:27.238Z,76.26
2022-08-28T05:36:55.693Z,76.00
2022-08-28T05:39:24.038Z,75.67
2022-08-28T05:41:52.540Z,75.73
2022-08-28T05:44:21.332Z,75.55
2022-08-28T05:46:51.073Z,75.73
2022-08-28T05:49:21.045Z,75.96
2022-08-28T05:51:51.357Z,76.10
2022-08-28T05:54:19.750Z,76.35
2022-08-28T05:56:49.725Z,76.53
2022-08-28T05:59:18.189Z,76.69
2022-08-28T06:01:49.335Z,76.78
2022-08-28T06:04:25.889Z,76.28
2022-08-28T06:06:54.606Z,76.36
2022-08-28T06:09:30.277Z,76.63
2022-08-28T06:12:02.168Z,76.63
2022-08-28T06:14:33.039Z,76.57
2022-08-28T06:17:04.101Z,76.53
2022-08-28T06:19:37.216Z,76.54
2022-08-28T06:22:12.239Z,76.33
2022-08-28T06:24:41.257Z,75.99
2022-08-28T06:27:10.036Z,75.95
2022-08-28T06:29:39.893Z,76.04
2022-08-28T06:32:10.072Z,75.96
2022-08-28T06:34:38.341Z,75.80
2022-08-28T06:37:12.364Z,76.10
2022-08-28T06:39:41.668Z,76.79
2022-08-28T06:42:10.717Z,76.88
2022-08-28T06:44:40.413Z,76.93
2022-08-28T06:47:09.040Z,76.81
2022-08-28T06:49:37.377Z,77.19
2022-08-28T06:52:06.178Z,77.46
2022-08-28T06:55:02.538Z,77.66
2022-08-28T06:58:02.572Z,77.36
2022-08-28T07:05:54.175Z,77.01
2022-08-28T07:11:30.314Z,76.26
2022-08-28T07:14:13.229Z,76.14
2022-08-28T07:16:56.407Z,76.30
2022-08-28T07:19:28.914Z,76.16
2022-08-28T07:21:59.524Z,76.52
2022-08-28T07:24:29.409Z,76.34
2022-08-28T07:26:58.212Z,76.48
2022-08-28T07:29:26.427Z,76.34
2022-08-28T07:31:56.586Z,76.34
2022-08-28T07:34:27.238Z,76.29
2022-08-28T07:37:03.786Z,76.10
2022-08-28T07:39:31.923Z,76.08
2022-08-28T07:42:00.269Z,75.59
2022-08-28T07:44:47.155Z,74.99
2022-08-28T07:47:20.411Z,74.41
2022-08-28T07:49:48.554Z,73.90
2022-08-28T07:52:17.651Z,71.88
2022-08-28T07:54:45.727Z,71.29
2022-08-28T07:57:15.224Z,71.02
2022-08-28T07:59:43.874Z,70.47
2022-08-28T08:02:12.363Z,69.95
2022-08-28T08:04:40.745Z,69.83
2022-08-28T08:07:09.921Z,69.89
2022-08-28T08:09:41.804Z,69.20
2022-08-28T08:12:10.572Z,68.30
2022-08-28T08:14:40.550Z,68.27
2022-08-28T08:17:09.732Z,68.93
2022-08-28T08:19:41.134Z,68.97
2022-08-28T08:22:10.489Z,68.62
2022-08-28T08:24:39.906Z,68.56
2022-08-28T08:27:11.575Z,68.77
2022-08-28T08:29:40.134Z,68.53
2022-08-28T08:32:10.771Z,68.25
2022-08-28T08:34:41.505Z,68.06
2022-08-28T08:37:10.705Z,67.47
2022-08-28T08:39:39.815Z,67.86
2022-08-28T08:42:29.250Z,67.45
2022-08-28T08:45:12.921Z,66.97
2022-08-28T08:47:48.291Z,67.15
2022-08-28T08:50:21.706Z,67.43
2022-08-28T08:53:07.364Z,67.37
2022-08-28T08:55:51.404Z,67.21
2022-08-28T08:58:33.501Z,66.81
2022-08-28T09:01:08.565Z,67.11
2022-08-28T09:03:53.704Z,67.40
2022-08-28T09:06:50.433Z,67.75
2022-08-28T09:09:31.043Z,68.06
2022-08-28T09:12:04.002Z,68.28
2022-08-28T09:14:43.949Z,68.39
2022-08-28T09:17:16.373Z,68.23
2022-08-28T09:19:57.649Z,68.34
2022-08-28T09:22:27.302Z,67.99
2022-08-28T09:24:55.650Z,67.60
2022-08-28T09:27:50.437Z,67.08
2022-08-28T09:30:32.331Z,66.61
2022-08-28T09:33:01.490Z,66.32
2022-08-28T09:35:35.185Z,66.39
2022-08-28T09:38:23.408Z,65.33
2022-08-28T09:41:28.977Z,65.24
2022-08-28T09:43:58.790Z,65.23
2022-08-28T09:46:32.382Z,64.69
2022-08-28T09:52:45.358Z,62.70
2022-08-28T09:56:27.230Z,62.58
2022-08-28T09:59:38.360Z,63.27
2022-08-28T10:02:40.982Z,63.50
2022-08-28T10:05:17.829Z,63.88
2022-08-28T10:08:05.801Z,63.82
2022-08-28T10:10:50.493Z,63.34
2022-08-28T10:13:53.822Z,63.56
2022-08-28T10:16:40.517Z,64.15
2022-08-28T10:19:36.265Z,63.69
2022-08-28T10:22:15.075Z,63.11
2022-08-28T10:25:00.656Z,62.96
2022-08-28T10:27:29.335Z,63.40
2022-08-28T10:30:13.205Z,63.37
2022-08-28T10:33:48.045Z,63.84
2022-08-28T10:36:33.418Z,64.27
2022-08-28T10:39:32.170Z,64.60
2022-08-28T10:42:08.613Z,64.75
2022-08-28T10:44:58.018Z,64.94
2022-08-28T10:47:29.939Z,65.50
2022-08-28T10:50:02.959Z,65.57
2022-08-28T10:52:40.201Z,66.29
2022-08-28T10:55:32.494Z,67.63
2022-08-28T10:58:24.343Z,68.43
2022-08-28T11:01:05.460Z,69.13
2022-08-28T11:03:42.611Z,70.00
2022-08-28T11:06:21.716Z,70.91
2022-08-28T11:08:53.810Z,71.39
2022-08-28T11:12:01.594Z,71.88
2022-08-28T11:14:47.901Z,72.73
2022-08-28T11:17:23.141Z,73.02
2022-08-28T11:19:52.533Z,72.96
2022-08-28T11:22:23.049Z,73.55
2022-08-28T11:25:26.723Z,73.68
2022-08-28T11:28:41.925Z,73.92
2022-08-28T11:31:28.855Z,73.99
2022-08-28T11:34:00.247Z,74.16
2022-08-28T11:36:29.982Z,73.86
2022-08-28T11:39:05.232Z,73.76
2022-08-28T11:41:59.659Z,73.70
2022-08-28T11:44:48.420Z,73.56
2022-08-28T11:47:43.938Z,73.46
2022-08-28T11:50:25.827Z,73.55
2022-08-28T11:53:02.490Z,73.46
2022-08-28T11:56:01.695Z,73.48
2022-08-28T11:58:35.475Z,73.34
2022-08-28T12:01:09.299Z,72.87
2022-08-28T12:03:40.869Z,72.67
2022-08-28T12:06:10.601Z,72.32
2022-08-28T12:09:02.608Z,72.10
2022-08-28T12:11:41.378Z,72.27
2022-08-28T12:14:33.122Z,71.94
2022-08-28T12:17:05.073Z,72.10
2022-08-28T12:19:51.227Z,72.00
2022-08-28T12:22:28.845Z,71.85
2022-08-28T12:25:00.066Z,71.68
2022-08-28T12:27:39.715Z,71.57
2022-08-28T12:30:10.375Z,71.22
2022-08-28T12:32:47.570Z,70.75
2022-08-28T12:35:45.591Z,70.35
2022-08-28T12:38:21.627Z,70.81
2022-08-28T12:40:51.373Z,71.15
2022-08-28T12:43:46.967Z,71.26
2022-08-28T12:46:21.805Z,71.87
2022-08-28T12:48:53.868Z,71.86
2022-08-28T12:51:29.220Z,72.25
2022-08-28T12:54:01.594Z,73.21
2022-08-28T12:56:34.375Z,73.23
2022-08-28T12:59:27.217Z,73.82
2022-08-28T13:02:07.289Z,74.25
2022-08-28T13:04:42.941Z,74.88
2022-08-28T13:07:21.957Z,75.05
2022-08-28T13:09:52.984Z,75.55
2022-08-28T13:12:54.871Z,76.44
2022-08-28T13:15:44.977Z,76.74
2022-08-28T13:18:49.992Z,77.67
2022-08-28T13:21:32.832Z,77.71
2022-08-28T13:24:23.311Z,78.28
2022-08-28T13:27:20.959Z,78.34
2022-08-28T13:29:59.963Z,78.85
2022-08-28T13:32:42.277Z,78.99
2022-08-28T13:35:23.296Z,79.18
2022-08-28T13:38:00.238Z,78.81
2022-08-28T13:43:23.498Z,78.76
2022-08-28T13:45:53.167Z,79.10
2022-08-28T13:48:24.456Z,79.24
2022-08-28T13:50:59.684Z,79.30
2022-08-28T13:53:28.168Z,78.69
2022-08-28T13:55:58.608Z,78.38
2022-08-28T13:58:28.381Z,78.41
2022-08-28T14:01:00.588Z,78.67
2022-08-28T14:03:44.266Z,79.06
2022-08-28T14:07:37.727Z,79.04
2022-08-28T14:10:16.156Z,79.28
2022-08-28T14:12:47.878Z,79.87
2022-08-28T14:15:21.135Z,79.74
2022-08-28T14:17:52.178Z,80.03
2022-08-28T14:20:23.187Z,80.15
2022-08-28T14:23:02.105Z,80.04
2022-08-28T14:25:39.210Z,80.23
2022-08-28T14:28:41.913Z,80.04
2022-08-28T14:32:50.620Z,80.33
2022-08-28T14:35:21.112Z,80.41
2022-08-28T14:37:49.669Z,80.38
2022-08-28T14:40:18.066Z,80.63
2022-08-28T14:42:46.416Z,81.13
2022-08-28T14:45:14.418Z,80.73
2022-08-28T14:47:43.404Z,80.78
2022-08-28T14:50:11.414Z,80.90
2022-08-28T14:52:40.462Z,81.29
2022-08-28T14:55:11.241Z,81.18
2022-08-28T14:57:39.828Z,81.22
2022-08-28T15:00:16.242Z,81.46
2022-08-28T15:02:44.901Z,81.38
2022-08-28T15:05:13.272Z,81.27
2022-08-28T15:07:41.742Z,81.19
2022-08-28T15:10:13.163Z,81.04
2022-08-28T15:12:41.266Z,81.23
2022-08-28T15:15:12.073Z,81.11
2022-08-28T15:17:40.413Z,81.09
2022-08-28T15:20:10.796Z,80.78
2022-08-28T15:22:38.858Z,81.08
2022-08-28T15:25:07.749Z,80.92
2022-08-28T15:27:36.269Z,81.19
2022-08-28T15:30:06.557Z,81.21
2022-08-28T15:32:34.797Z,81.43
2022-08-28T15:35:02.978Z,81.47
2022-08-28T15:37:31.747Z,81.83
2022-08-28T15:40:19.438Z,81.91
2022-08-28T15:43:01.652Z,81.91
2022-08-28T15:48:56.312Z,82.27
2022-08-28T15:52:02.978Z,82.53
2022-08-28T15:55:18.367Z,82.40
2022-08-28T15:58:30.704Z,82.39
2022-08-28T16:04:35.651Z,82.10
2022-08-28T16:21:04.057Z,83.10
2022-08-28T16:23:33.709Z,83.06
2022-08-28T16:26:03.008Z,82.82
2022-08-28T16:28:31.232Z,83.02
2022-08-28T16:31:02.968Z,83.06
2022-08-28T16:33:40.214Z,83.11
2022-08-28T16:36:18.569Z,82.99
2022-08-28T16:38:52.895Z,82.94
2022-08-28T16:41:32.124Z,82.83
2022-08-28T16:44:01.998Z,83.06
2022-08-28T16:46:34.818Z,82.95
2022-08-28T16:49:03.097Z,82.90
2022-08-28T16:51:32.056Z,82.93
2022-08-28T16:54:01.754Z,82.68
2022-08-28T16:56:31.305Z,82.62
2022-08-28T16:58:59.474Z,82.14
2022-08-28T17:01:29.583Z,81.93
2022-08-28T17:04:00.886Z,82.10
2022-08-28T17:06:31.219Z,82.06
2022-08-28T17:09:04.358Z,81.76
2022-08-28T17:11:33.990Z,81.69
2022-08-28T17:14:03.128Z,81.63
2022-08-28T17:16:32.941Z,81.56
2022-08-28T17:19:07.842Z,81.75
2022-08-28T17:21:55.091Z,81.99
2022-08-28T17:24:23.519Z,81.66
2022-08-28T17:27:04.621Z,81.77
2022-08-28T17:29:36.354Z,81.93
2022-08-28T17:32:08.016Z,81.90
2022-08-28T17:34:38.785Z,81.64
2022-08-28T17:37:06.754Z,81.82
2022-08-28T17:39:34.743Z,81.85
2022-08-28T17:42:04.092Z,81.52
2022-08-28T17:44:32.179Z,81.60
2022-08-28T17:47:01.071Z,81.43
2022-08-28T17:49:30.133Z,81.80
2022-08-28T17:52:00.727Z,81.72
2022-08-28T17:54:28.872Z,81.33
2022-08-28T17:56:57.705Z,81.49
2022-08-28T17:59:27.903Z,81.56
2022-08-28T18:01:56.134Z,81.71
2022-08-28T18:04:24.874Z,81.81
2022-08-28T18:06:54.631Z,82.22
2022-08-28T18:09:24.127Z,82.18
2022-08-28T18:11:52.975Z,82.14
2022-08-28T18:14:22.355Z,82.18
2022-08-28T18:16:50.429Z,82.27
2022-08-28T18:19:19.953Z,82.36
2022-08-28T18:21:48.016Z,82.16
2022-08-28T18:24:16.884Z,81.94
2022-08-28T18:26:45.345Z,82.02
2022-08-28T18:29:14.422Z,82.07
2022-08-28T18:31:43.757Z,82.10
2022-08-28T18:34:12.024Z,82.12
2022-08-28T18:36:42.161Z,82.13
2022-08-28T18:39:10.369Z,82.17
2022-08-28T18:41:43.492Z,82.14
2022-08-28T18:44:16.145Z,82.37
2022-08-28T18:46:45.105Z,82.46
2022-08-28T18:49:13.364Z,82.13
2022-08-28T18:51:44.209Z,82.22
2022-08-28T18:54:18.600Z,82.35
2022-08-28T18:56:48.325Z,82.29
2022-08-28T18:59:24.745Z,82.38
2022-08-28T19:01:53.284Z,82.82
2022-08-28T19:04:23.050Z,82.72
2022-08-28T19:06:52.782Z,82.57
2022-08-28T19:09:21.515Z,82.59
2022-08-28T19:11:51.841Z,82.51
2022-08-28T19:14:20.280Z,82.49
2022-08-28T19:16:49.625Z,82.31
2022-08-28T19:19:18.711Z,82.48
2022-08-28T19:21:49.081Z,82.42
2022-08-28T19:24:20.906Z,82.54
2022-08-28T19:26:52.016Z,82.84
2022-08-28T19:29:20.794Z,82.70
2022-08-28T19:31:49.103Z,82.26
2022-08-28T19:34:17.315Z,82.58
2022-08-28T19:36:46.517Z,82.54
2022-08-28T19:39:18.375Z,82.21
2022-08-28T19:41:49.249Z,82.41
2022-08-28T19:44:17.277Z,82.56
2022-08-28T19:46:47.248Z,82.67
2022-08-28T19:49:15.702Z,82.90
2022-08-28T19:51:45.034Z,82.78
2022-08-28T19:54:15.022Z,82.70
2022-08-28T19:56:43.950Z,82.66
2022-08-28T19:59:12.710Z,82.27
2022-08-28T20:01:45.448Z,82.08
2022-08-28T20:04:17.549Z,82.16
2022-08-28T20:06:46.264Z,81.65
2022-08-28T20:09:17.657Z,81.33
2022-08-28T20:11:47.032Z,80.80
2022-08-28T20:14:19.957Z,80.48
2022-08-28T20:16:50.869Z,80.76
2022-08-28T20:19:19.929Z,80.48
2022-08-28T20:21:49.959Z,80.37
2022-08-28T20:24:22.216Z,80.36
2022-08-28T20:26:51.175Z,80.13
2022-08-28T20:29:19.901Z,79.55
2022-08-28T20:31:48.346Z,79.42
2022-08-28T20:34:18.763Z,79.43
2022-08-28T20:36:46.817Z,79.38
2022-08-28T20:39:15.549Z,79.05
2022-08-28T20:41:44.481Z,79.16
2022-08-28T20:44:14.466Z,78.86
2022-08-28T20:46:42.970Z,78.45
2022-08-28T20:49:12.407Z,78.52
2022-08-28T20:51:56.471Z,78.49
2022-08-28T20:54:29.412Z,78.09
2022-08-28T20:56:59.496Z,78.31
2022-08-28T20:59:29.669Z,78.21
2022-08-28T21:02:11.055Z,78.10
2022-08-28T21:04:41.500Z,77.99
2022-08-28T21:07:10.228Z,78.05
2022-08-28T21:10:03.829Z,77.48
2022-08-28T21:12:27.306Z,77.71
2022-08-28T21:14:55.272Z,77.76
2022-08-28T21:17:30.167Z,77.61
2022-08-28T21:20:00.628Z,77.68
2022-08-28T21:22:30.041Z,77.68
2022-08-28T21:24:59.127Z,77.62
2022-08-28T21:27:27.319Z,77.91
2022-08-28T21:29:59.551Z,77.56
2022-08-28T21:32:28.777Z,77.26
2022-08-28T21:34:56.743Z,77.07
2022-08-28T21:37:24.758Z,77.10
2022-08-28T21:39:53.816Z,77.07
2022-08-28T21:42:25.144Z,77.28
2022-08-28T21:44:54.550Z,77.18
2022-08-28T21:47:23.433Z,77.30
2022-08-28T21:49:53.309Z,77.33
2022-08-28T21:52:24.396Z,77.40
2022-08-28T21:55:00.556Z,77.50
2022-08-28T21:57:29.660Z,77.46
2022-08-28T21:59:58.693Z,77.49
2022-08-28T22:02:26.901Z,77.20
2022-08-28T22:04:54.909Z,77.28
2022-08-28T22:07:22.844Z,77.24
2022-08-28T22:09:51.499Z,77.45
2022-08-28T22:12:19.530Z,77.39
2022-08-28T22:14:47.441Z,77.38
2022-08-28T22:17:15.902Z,77.25
2022-08-28T22:19:46.421Z,77.34
2022-08-28T22:22:34.066Z,77.37
2022-08-28T22:25:02.205Z,77.44
2022-08-28T22:27:34.686Z,77.51
2022-08-28T22:30:03.514Z,77.48
2022-08-28T22:32:31.653Z,77.79
2022-08-28T22:34:59.624Z,77.96
2022-08-28T22:37:27.923Z,78.31
2022-08-28T22:39:55.918Z,78.40
2022-08-28T22:42:23.839Z,78.46
2022-08-28T22:44:51.819Z,78.33
2022-08-28T22:47:19.811Z,78.02
2022-08-28T22:49:47.826Z,78.24
2022-08-28T22:52:16.914Z,78.45
2022-08-28T22:54:47.069Z,78.63
2022-08-28T22:57:20.610Z,78.74
2022-08-28T22:59:49.719Z,78.61
2022-08-28T23:02:19.433Z,78.61
2022-08-28T23:04:51.312Z,78.73
2022-08-28T23:07:20.484Z,78.74
2022-08-28T23:09:48.415Z,78.85
2022-08-28T23:12:16.931Z,78.48
2022-08-28T23:14:48.370Z,78.57
2022-08-28T23:17:17.612Z,78.77
2022-08-28T23:19:48.419Z,78.62
2022-08-28T23:22:18.253Z,78.68
2022-08-28T23:24:46.963Z,78.58
2022-08-28T23:27:35.228Z,78.83
2022-08-28T23:30:06.811Z,78.52
2022-08-28T23:32:34.940Z,78.37
2022-08-28T23:35:07.093Z,78.40
2022-08-28T23:37:36.548Z,78.28
2022-08-28T23:40:12.255Z,78.05
2022-08-28T23:42:40.360Z,77.51
2022-08-28T23:45:09.029Z,77.68
2022-08-28T23:47:40.365Z,77.06
2022-08-28T23:50:13.586Z,76.74
2022-08-28T23:52:43.045Z,76.76
2022-08-28T23:55:13.492Z,76.83
2022-08-28T23:57:41.485Z,76.97
